sensor_id;sensor_type;location;lat;lon;timestamp;P1;durP1;ratioP1;P2;durP2;ratioP2
33254;SDS011;19623;52.482;9.762;2022-08-18T00:01:47;141.75;;;130.30;;
33254;SDS011;19623;52.482;9.762;2022-08-18T00:04:18;114.90;;;104.63;;
33254;SDS011;19623;52.482;9.762;2022-08-18T00:06:43;108.25;;;97.15;;
33254;SDS011;19623;52.482;9.762;2022-08-18T00:09:09;136.93;;;125.05;;
33254;SDS011;19623;52.482;9.762;2022-08-18T00:11:41;139.80;;;127.47;;
33254;SDS011;19623;52.482;9.762;2022-08-18T00:14:15;129.20;;;118.35;;
33254;SDS011;19623;52.482;9.762;2022-08-18T00:16:43;129.13;;;117.65;;
33254;SDS011;19623;52.482;9.762;2022-08-18T00:19:09;150.70;;;136.45;;
33254;SDS011;19623;52.482;9.762;2022-08-18T00:21:35;201.60;;;184.43;;
33254;SDS011;19623;52.482;9.762;2022-08-18T00:24:00;222.60;;;204.30;;
33254;SDS011;19623;52.482;9.762;2022-08-18T00:26:26;232.05;;;213.23;;
33254;SDS011;19623;52.482;9.762;2022-08-18T00:28:52;243.63;;;223.88;;
33254;SDS011;19623;52.482;9.762;2022-08-18T00:31:18;142.93;;;130.55;;
33254;SDS011;19623;52.482;9.762;2022-08-18T00:33:43;281.63;;;258.13;;
33254;SDS011;19623;52.482;9.762;2022-08-18T00:36:10;91.00;;;83.60;;
33254;SDS011;19623;52.482;9.762;2022-08-18T00:38:36;58.47;;;53.15;;
33254;SDS011;19623;52.482;9.762;2022-08-18T00:41:02;141.13;;;129.88;;
33254;SDS011;19623;52.482;9.762;2022-08-18T00:46:13;205.73;;;190.02;;
33254;SDS011;19623;52.482;9.762;2022-08-18T00:48:48;213.95;;;196.25;;
33254;SDS011;19623;52.482;9.762;2022-08-18T00:51:18;208.27;;;190.15;;
33254;SDS011;19623;52.482;9.762;2022-08-18T00:54:13;302.27;;;277.50;;
33254;SDS011;19623;52.482;9.762;2022-08-18T00:56:47;503.35;;;455.25;;
33254;SDS011;19623;52.482;9.762;2022-08-18T00:59:32;432.63;;;395.50;;
33254;SDS011;19623;52.482;9.762;2022-08-18T01:02:10;434.80;;;396.92;;
33254;SDS011;19623;52.482;9.762;2022-08-18T01:04:48;579.20;;;523.60;;
33254;SDS011;19623;52.482;9.762;2022-08-18T01:07:22;294.52;;;272.10;;
33254;SDS011;19623;52.482;9.762;2022-08-18T01:10:10;387.30;;;356.33;;
33254;SDS011;19623;52.482;9.762;2022-08-18T01:12:40;374.52;;;343.95;;
33254;SDS011;19623;52.482;9.762;2022-08-18T01:15:07;336.52;;;308.90;;
33254;SDS011;19623;52.482;9.762;2022-08-18T01:17:33;540.22;;;492.05;;
33254;SDS011;19623;52.482;9.762;2022-08-18T01:20:33;525.17;;;480.90;;
33254;SDS011;19623;52.482;9.762;2022-08-18T01:23:22;583.35;;;527.83;;
33254;SDS011;19623;52.482;9.762;2022-08-18T01:25:48;524.28;;;475.27;;
33254;SDS011;19623;52.482;9.762;2022-08-18T01:28:25;550.38;;;500.52;;
33254;SDS011;19623;52.482;9.762;2022-08-18T01:30:52;520.45;;;475.60;;
33254;SDS011;19623;52.482;9.762;2022-08-18T01:33:23;548.20;;;498.65;;
33254;SDS011;19623;52.482;9.762;2022-08-18T01:35:51;396.33;;;362.70;;
33254;SDS011;19623;52.482;9.762;2022-08-18T01:38:19;165.60;;;151.88;;
33254;SDS011;19623;52.482;9.762;2022-08-18T01:40:47;369.70;;;335.50;;
33254;SDS011;19623;52.482;9.762;2022-08-18T01:43:13;174.63;;;160.32;;
33254;SDS011;19623;52.482;9.762;2022-08-18T01:45:40;190.70;;;174.43;;
33254;SDS011;19623;52.482;9.762;2022-08-18T01:48:06;313.52;;;287.30;;
33254;SDS011;19623;52.482;9.762;2022-08-18T01:50:32;125.45;;;114.97;;
33254;SDS011;19623;52.482;9.762;2022-08-18T01:52:59;595.50;;;542.17;;
33254;SDS011;19623;52.482;9.762;2022-08-18T01:55:26;532.92;;;486.98;;
33254;SDS011;19623;52.482;9.762;2022-08-18T01:57:52;531.17;;;485.10;;
33254;SDS011;19623;52.482;9.762;2022-08-18T02:00:19;368.30;;;340.33;;
33254;SDS011;19623;52.482;9.762;2022-08-18T02:02:45;250.63;;;231.43;;
33254;SDS011;19623;52.482;9.762;2022-08-18T02:05:19;299.38;;;275.50;;
33254;SDS011;19623;52.482;9.762;2022-08-18T02:07:52;463.23;;;421.63;;
33254;SDS011;19623;52.482;9.762;2022-08-18T02:10:18;379.42;;;347.38;;
33254;SDS011;19623;52.482;9.762;2022-08-18T02:12:43;547.92;;;498.38;;
33254;SDS011;19623;52.482;9.762;2022-08-18T02:15:09;350.75;;;320.92;;
33254;SDS011;19623;52.482;9.762;2022-08-18T02:17:40;144.85;;;132.85;;
33254;SDS011;19623;52.482;9.762;2022-08-18T02:20:08;311.45;;;287.13;;
33254;SDS011;19623;52.482;9.762;2022-08-18T02:22:36;440.70;;;403.42;;
33254;SDS011;19623;52.482;9.762;2022-08-18T02:25:02;574.13;;;517.55;;
33254;SDS011;19623;52.482;9.762;2022-08-18T02:27:28;599.05;;;542.58;;
33254;SDS011;19623;52.482;9.762;2022-08-18T02:29:54;457.42;;;417.73;;
33254;SDS011;19623;52.482;9.762;2022-08-18T02:32:20;537.67;;;490.52;;
33254;SDS011;19623;52.482;9.762;2022-08-18T02:34:45;327.77;;;301.77;;
33254;SDS011;19623;52.482;9.762;2022-08-18T02:37:11;482.95;;;443.63;;
33254;SDS011;19623;52.482;9.762;2022-08-18T02:39:37;476.83;;;439.25;;
33254;SDS011;19623;52.482;9.762;2022-08-18T02:42:04;467.20;;;428.80;;
33254;SDS011;19623;52.482;9.762;2022-08-18T02:44:30;498.60;;;457.42;;
33254;SDS011;19623;52.482;9.762;2022-08-18T02:46:56;301.55;;;276.92;;
33254;SDS011;19623;52.482;9.762;2022-08-18T02:49:22;546.90;;;499.25;;
33254;SDS011;19623;52.482;9.762;2022-08-18T02:51:49;432.67;;;396.55;;
33254;SDS011;19623;52.482;9.762;2022-08-18T02:54:17;473.00;;;431.27;;
33254;SDS011;19623;52.482;9.762;2022-08-18T02:56:44;656.08;;;594.08;;
33254;SDS011;19623;52.482;9.762;2022-08-18T02:59:14;586.10;;;531.75;;
33254;SDS011;19623;52.482;9.762;2022-08-18T03:01:48;566.63;;;516.65;;
33254;SDS011;19623;52.482;9.762;2022-08-18T03:04:16;555.60;;;507.75;;
33254;SDS011;19623;52.482;9.762;2022-08-18T03:06:47;477.63;;;437.83;;
33254;SDS011;19623;52.482;9.762;2022-08-18T03:09:14;423.08;;;388.05;;
33254;SDS011;19623;52.482;9.762;2022-08-18T03:11:42;462.58;;;422.95;;
33254;SDS011;19623;52.482;9.762;2022-08-18T03:14:08;339.48;;;313.13;;
33254;SDS011;19623;52.482;9.762;2022-08-18T03:16:34;293.23;;;270.75;;
33254;SDS011;19623;52.482;9.762;2022-08-18T03:19:04;141.27;;;129.23;;
33254;SDS011;19623;52.482;9.762;2022-08-18T03:21:30;475.10;;;435.02;;
33254;SDS011;19623;52.482;9.762;2022-08-18T03:23:59;337.08;;;311.42;;
33254;SDS011;19623;52.482;9.762;2022-08-18T03:26:26;293.95;;;271.98;;
33254;SDS011;19623;52.482;9.762;2022-08-18T03:28:53;229.02;;;211.73;;
33254;SDS011;19623;52.482;9.762;2022-08-18T03:31:20;132.98;;;121.72;;
33254;SDS011;19623;52.482;9.762;2022-08-18T03:33:48;195.63;;;179.02;;
33254;SDS011;19623;52.482;9.762;2022-08-18T03:36:19;230.63;;;212.55;;
33254;SDS011;19623;52.482;9.762;2022-08-18T03:38:47;273.35;;;251.48;;
33254;SDS011;19623;52.482;9.762;2022-08-18T03:41:14;269.58;;;249.13;;
33254;SDS011;19623;52.482;9.762;2022-08-18T03:43:41;164.70;;;151.55;;
33254;SDS011;19623;52.482;9.762;2022-08-18T03:46:08;204.07;;;186.82;;
33254;SDS011;19623;52.482;9.762;2022-08-18T03:48:36;164.57;;;151.98;;
33254;SDS011;19623;52.482;9.762;2022-08-18T03:53:34;308.42;;;284.98;;
33254;SDS011;19623;52.482;9.762;2022-08-18T03:56:00;308.63;;;284.08;;
33254;SDS011;19623;52.482;9.762;2022-08-18T03:58:30;313.70;;;289.25;;
33254;SDS011;19623;52.482;9.762;2022-08-18T04:00:55;594.30;;;535.55;;
33254;SDS011;19623;52.482;9.762;2022-08-18T04:03:21;526.78;;;476.73;;
33254;SDS011;19623;52.482;9.762;2022-08-18T04:05:47;571.45;;;510.23;;
33254;SDS011;19623;52.482;9.762;2022-08-18T04:08:12;468.45;;;427.23;;
33254;SDS011;19623;52.482;9.762;2022-08-18T04:10:38;313.10;;;286.67;;
33254;SDS011;19623;52.482;9.762;2022-08-18T04:13:04;170.65;;;154.63;;
33254;SDS011;19623;52.482;9.762;2022-08-18T04:15:30;171.73;;;157.52;;
33254;SDS011;19623;52.482;9.762;2022-08-18T04:17:57;649.63;;;427.40;;
33254;SDS011;19623;52.482;9.762;2022-08-18T04:20:24;484.35;;;432.13;;
33254;SDS011;19623;52.482;9.762;2022-08-18T04:22:49;581.17;;;464.30;;
33254;SDS011;19623;52.482;9.762;2022-08-18T04:25:15;522.13;;;465.33;;
33254;SDS011;19623;52.482;9.762;2022-08-18T04:27:41;533.22;;;471.30;;
33254;SDS011;19623;52.482;9.762;2022-08-18T04:30:07;505.45;;;455.17;;
33254;SDS011;19623;52.482;9.762;2022-08-18T04:32:35;641.38;;;476.23;;
33254;SDS011;19623;52.482;9.762;2022-08-18T04:35:01;563.85;;;482.45;;
33254;SDS011;19623;52.482;9.762;2022-08-18T04:37:26;627.50;;;493.65;;
33254;SDS011;19623;52.482;9.762;2022-08-18T04:39:54;573.40;;;501.95;;
33254;SDS011;19623;52.482;9.762;2022-08-18T04:42:20;559.17;;;502.20;;
33254;SDS011;19623;52.482;9.762;2022-08-18T04:44:45;534.38;;;481.50;;
33254;SDS011;19623;52.482;9.762;2022-08-18T04:47:11;634.05;;;486.05;;
33254;SDS011;19623;52.482;9.762;2022-08-18T04:49:37;664.90;;;494.63;;
33254;SDS011;19623;52.482;9.762;2022-08-18T04:52:03;600.20;;;506.35;;
33254;SDS011;19623;52.482;9.762;2022-08-18T04:54:48;621.50;;;499.27;;
33254;SDS011;19623;52.482;9.762;2022-08-18T04:57:15;613.97;;;526.78;;
33254;SDS011;19623;52.482;9.762;2022-08-18T04:59:43;647.65;;;518.85;;
33254;SDS011;19623;52.482;9.762;2022-08-18T05:02:11;573.40;;;512.00;;
33254;SDS011;19623;52.482;9.762;2022-08-18T05:04:39;644.90;;;523.60;;
33254;SDS011;19623;52.482;9.762;2022-08-18T05:07:10;626.38;;;559.83;;
33254;SDS011;19623;52.482;9.762;2022-08-18T05:09:36;700.30;;;505.30;;
33254;SDS011;19623;52.482;9.762;2022-08-18T05:12:04;609.47;;;529.35;;
33254;SDS011;19623;52.482;9.762;2022-08-18T05:14:30;555.20;;;501.13;;
33254;SDS011;19623;52.482;9.762;2022-08-18T05:17:00;556.95;;;503.65;;
33254;SDS011;19623;52.482;9.762;2022-08-18T05:19:26;559.78;;;509.13;;
33254;SDS011;19623;52.482;9.762;2022-08-18T05:21:53;540.97;;;491.45;;
33254;SDS011;19623;52.482;9.762;2022-08-18T05:24:20;638.35;;;563.38;;
33254;SDS011;19623;52.482;9.762;2022-08-18T05:26:46;640.83;;;577.00;;
33254;SDS011;19623;52.482;9.762;2022-08-18T05:29:13;630.63;;;570.58;;
33254;SDS011;19623;52.482;9.762;2022-08-18T05:31:39;623.42;;;562.72;;
33254;SDS011;19623;52.482;9.762;2022-08-18T05:34:05;648.47;;;580.85;;
33254;SDS011;19623;52.482;9.762;2022-08-18T05:36:52;571.83;;;518.83;;
33254;SDS011;19623;52.482;9.762;2022-08-18T05:39:25;623.03;;;561.88;;
33254;SDS011;19623;52.482;9.762;2022-08-18T05:44:42;447.05;;;403.08;;
33254;SDS011;19623;52.482;9.762;2022-08-18T05:49:50;551.03;;;502.02;;
33254;SDS011;19623;52.482;9.762;2022-08-18T05:52:18;488.88;;;441.55;;
33254;SDS011;19623;52.482;9.762;2022-08-18T05:55:02;333.48;;;305.85;;
33254;SDS011;19623;52.482;9.762;2022-08-18T05:58:04;524.97;;;477.95;;
33254;SDS011;19623;52.482;9.762;2022-08-18T06:00:36;467.92;;;428.35;;
33254;SDS011;19623;52.482;9.762;2022-08-18T06:03:07;630.00;;;555.70;;
33254;SDS011;19623;52.482;9.762;2022-08-18T06:05:46;573.45;;;517.85;;
33254;SDS011;19623;52.482;9.762;2022-08-18T06:08:19;521.83;;;472.42;;
33254;SDS011;19623;52.482;9.762;2022-08-18T06:10:50;577.60;;;517.10;;
33254;SDS011;19623;52.482;9.762;2022-08-18T06:13:16;393.73;;;357.80;;
33254;SDS011;19623;52.482;9.762;2022-08-18T06:24:08;625.70;;;545.90;;
33254;SDS011;19623;52.482;9.762;2022-08-18T06:26:46;570.88;;;515.47;;
33254;SDS011;19623;52.482;9.762;2022-08-18T06:40:39;613.97;;;552.83;;
33254;SDS011;19623;52.482;9.762;2022-08-18T06:43:06;551.03;;;500.10;;
33254;SDS011;19623;52.482;9.762;2022-08-18T06:45:36;109.95;;;98.28;;
33254;SDS011;19623;52.482;9.762;2022-08-18T06:48:09;493.77;;;450.00;;
33254;SDS011;19623;52.482;9.762;2022-08-18T06:50:51;453.08;;;412.90;;
33254;SDS011;19623;52.482;9.762;2022-08-18T06:53:21;530.20;;;483.95;;
33254;SDS011;19623;52.482;9.762;2022-08-18T06:56:21;663.90;;;600.13;;
33254;SDS011;19623;52.482;9.762;2022-08-18T06:58:52;550.70;;;501.83;;
33254;SDS011;19623;52.482;9.762;2022-08-18T07:01:46;535.33;;;487.92;;
33254;SDS011;19623;52.482;9.762;2022-08-18T07:04:42;596.13;;;543.03;;
33254;SDS011;19623;52.482;9.762;2022-08-18T07:07:39;484.30;;;443.17;;
33254;SDS011;19623;52.482;9.762;2022-08-18T07:10:30;570.10;;;517.80;;
33254;SDS011;19623;52.482;9.762;2022-08-18T07:13:07;533.08;;;488.70;;
33254;SDS011;19623;52.482;9.762;2022-08-18T07:15:32;463.00;;;424.55;;
33254;SDS011;19623;52.482;9.762;2022-08-18T07:18:04;559.58;;;512.35;;
33254;SDS011;19623;52.482;9.762;2022-08-18T07:20:40;186.75;;;169.05;;
33254;SDS011;19623;52.482;9.762;2022-08-18T07:23:08;419.40;;;383.83;;
33254;SDS011;19623;52.482;9.762;2022-08-18T07:25:46;181.18;;;162.90;;
33254;SDS011;19623;52.482;9.762;2022-08-18T07:33:46;500.23;;;457.25;;
33254;SDS011;19623;52.482;9.762;2022-08-18T07:36:22;112.03;;;100.57;;
33254;SDS011;19623;52.482;9.762;2022-08-18T07:38:53;87.07;;;78.00;;
33254;SDS011;19623;52.482;9.762;2022-08-18T07:41:37;160.07;;;145.20;;
33254;SDS011;19623;52.482;9.762;2022-08-18T07:44:20;192.02;;;175.40;;
33254;SDS011;19623;52.482;9.762;2022-08-18T07:49:25;65.47;;;37.63;;
33254;SDS011;19623;52.482;9.762;2022-08-18T07:52:01;233.07;;;212.77;;
33254;SDS011;19623;52.482;9.762;2022-08-18T07:54:34;236.57;;;215.80;;
33254;SDS011;19623;52.482;9.762;2022-08-18T08:00:00;409.40;;;376.00;;
33254;SDS011;19623;52.482;9.762;2022-08-18T08:02:37;357.60;;;325.23;;
33254;SDS011;19623;52.482;9.762;2022-08-18T08:08:21;364.20;;;334.15;;
33254;SDS011;19623;52.482;9.762;2022-08-18T08:11:07;598.83;;;547.90;;
33254;SDS011;19623;52.482;9.762;2022-08-18T08:13:59;615.38;;;562.90;;
33254;SDS011;19623;52.482;9.762;2022-08-18T08:22:03;338.67;;;311.63;;
33254;SDS011;19623;52.482;9.762;2022-08-18T08:24:47;439.65;;;403.92;;
33254;SDS011;19623;52.482;9.762;2022-08-18T08:30:20;264.35;;;240.85;;
33254;SDS011;19623;52.482;9.762;2022-08-18T08:35:18;455.98;;;419.45;;
33254;SDS011;19623;52.482;9.762;2022-08-18T08:43:14;681.95;;;619.95;;
33254;SDS011;19623;52.482;9.762;2022-08-18T08:45:56;530.78;;;486.77;;
33254;SDS011;19623;52.482;9.762;2022-08-18T08:48:35;95.75;;;86.50;;
33254;SDS011;19623;52.482;9.762;2022-08-18T08:57:00;283.52;;;261.73;;
33254;SDS011;19623;52.482;9.762;2022-08-18T08:59:27;54.10;;;40.38;;
33254;SDS011;19623;52.482;9.762;2022-08-18T09:07:42;307.35;;;283.35;;
33254;SDS011;19623;52.482;9.762;2022-08-18T09:10:27;605.20;;;555.50;;
33254;SDS011;19623;52.482;9.762;2022-08-18T09:23:50;432.63;;;398.60;;
33254;SDS011;19623;52.482;9.762;2022-08-18T09:29:15;387.10;;;356.63;;
33254;SDS011;19623;52.482;9.762;2022-08-18T09:31:47;384.20;;;355.20;;
33254;SDS011;19623;52.482;9.762;2022-08-18T09:34:48;245.05;;;226.02;;
33254;SDS011;19623;52.482;9.762;2022-08-18T09:37:45;382.17;;;352.45;;
33254;SDS011;19623;52.482;9.762;2022-08-18T09:40:44;207.95;;;191.52;;
33254;SDS011;19623;52.482;9.762;2022-08-18T09:47:03;583.05;;;537.50;;
33254;SDS011;19623;52.482;9.762;2022-08-18T09:54:15;583.60;;;538.25;;
33254;SDS011;19623;52.482;9.762;2022-08-18T10:01:58;328.45;;;304.40;;
33254;SDS011;19623;52.482;9.762;2022-08-18T10:04:34;574.35;;;530.78;;
33254;SDS011;19623;52.482;9.762;2022-08-18T10:07:26;704.33;;;649.45;;
33254;SDS011;19623;52.482;9.762;2022-08-18T10:15:21;857.03;;;773.60;;
33254;SDS011;19623;52.482;9.762;2022-08-18T10:17:59;839.55;;;754.15;;
33254;SDS011;19623;52.482;9.762;2022-08-18T10:37:13;583.97;;;541.05;;
33254;SDS011;19623;52.482;9.762;2022-08-18T10:39:56;524.42;;;485.42;;
33254;SDS011;19623;52.482;9.762;2022-08-18T10:42:32;682.85;;;624.40;;
33254;SDS011;19623;52.482;9.762;2022-08-18T10:45:28;571.25;;;525.58;;
33254;SDS011;19623;52.482;9.762;2022-08-18T10:48:09;42.10;;;37.95;;
33254;SDS011;19623;52.482;9.762;2022-08-18T10:50:45;535.20;;;492.95;;
33254;SDS011;19623;52.482;9.762;2022-08-18T10:53:31;178.70;;;165.15;;
33254;SDS011;19623;52.482;9.762;2022-08-18T10:59:21;18.40;;;13.60;;
33254;SDS011;19623;52.482;9.762;2022-08-18T11:04:46;515.75;;;478.92;;
33254;SDS011;19623;52.482;9.762;2022-08-18T11:07:22;561.60;;;518.78;;
33254;SDS011;19623;52.482;9.762;2022-08-18T11:09:54;484.05;;;447.85;;
33254;SDS011;19623;52.482;9.762;2022-08-18T11:12:37;454.35;;;421.65;;
33254;SDS011;19623;52.482;9.762;2022-08-18T11:17:38;725.85;;;666.03;;
33254;SDS011;19623;52.482;9.762;2022-08-18T11:20:13;824.67;;;746.25;;
33254;SDS011;19623;52.482;9.762;2022-08-18T11:22:52;583.60;;;538.40;;
33254;SDS011;19623;52.482;9.762;2022-08-18T11:27:48;614.60;;;567.10;;
33254;SDS011;19623;52.482;9.762;2022-08-18T11:30:24;794.53;;;729.03;;
33254;SDS011;19623;52.482;9.762;2022-08-18T11:32:56;815.45;;;747.00;;
33254;SDS011;19623;52.482;9.762;2022-08-18T11:35:26;155.07;;;144.23;;
33254;SDS011;19623;52.482;9.762;2022-08-18T11:40:28;129.75;;;121.22;;
33254;SDS011;19623;52.482;9.762;2022-08-18T11:45:34;37.53;;;34.67;;
33254;SDS011;19623;52.482;9.762;2022-08-18T11:51:00;12.40;;;9.02;;
33254;SDS011;19623;52.482;9.762;2022-08-18T11:53:39;25.25;;;23.13;;
33254;SDS011;19623;52.482;9.762;2022-08-18T11:56:25;71.90;;;66.80;;
33254;SDS011;19623;52.482;9.762;2022-08-18T12:06:53;14.82;;;9.13;;
33254;SDS011;19623;52.482;9.762;2022-08-18T12:09:35;15.18;;;8.95;;
33254;SDS011;19623;52.482;9.762;2022-08-18T12:17:20;14.20;;;8.65;;
33254;SDS011;19623;52.482;9.762;2022-08-18T12:19:46;85.97;;;80.07;;
33254;SDS011;19623;52.482;9.762;2022-08-18T12:22:16;685.95;;;626.17;;
33254;SDS011;19623;52.482;9.762;2022-08-18T12:24:45;672.40;;;617.65;;
33254;SDS011;19623;52.482;9.762;2022-08-18T12:27:12;726.20;;;619.53;;
33254;SDS011;19623;52.482;9.762;2022-08-18T12:29:41;11.60;;;7.68;;
33254;SDS011;19623;52.482;9.762;2022-08-18T12:32:08;685.30;;;620.00;;
33254;SDS011;19623;52.482;9.762;2022-08-18T12:34:34;13.60;;;6.75;;
33254;SDS011;19623;52.482;9.762;2022-08-18T12:37:00;12.32;;;7.68;;
33254;SDS011;19623;52.482;9.762;2022-08-18T12:39:26;444.20;;;407.67;;
33254;SDS011;19623;52.482;9.762;2022-08-18T12:41:54;12.43;;;8.15;;
33254;SDS011;19623;52.482;9.762;2022-08-18T12:44:20;20.13;;;18.50;;
33254;SDS011;19623;52.482;9.762;2022-08-18T12:46:45;11.73;;;8.20;;
33254;SDS011;19623;52.482;9.762;2022-08-18T12:49:16;10.80;;;7.90;;
33254;SDS011;19623;52.482;9.762;2022-08-18T12:51:43;12.95;;;8.00;;
33254;SDS011;19623;52.482;9.762;2022-08-18T12:54:10;186.65;;;170.48;;
33254;SDS011;19623;52.482;9.762;2022-08-18T12:56:36;710.65;;;648.17;;
33254;SDS011;19623;52.482;9.762;2022-08-18T12:59:03;412.63;;;382.05;;
33254;SDS011;19623;52.482;9.762;2022-08-18T13:01:30;224.20;;;207.20;;
33254;SDS011;19623;52.482;9.762;2022-08-18T13:03:57;138.55;;;125.25;;
33254;SDS011;19623;52.482;9.762;2022-08-18T13:06:23;12.95;;;9.35;;
33254;SDS011;19623;52.482;9.762;2022-08-18T13:08:50;481.90;;;439.10;;
33254;SDS011;19623;52.482;9.762;2022-08-18T13:11:20;820.40;;;751.33;;
33254;SDS011;19623;52.482;9.762;2022-08-18T13:13:46;589.67;;;543.97;;
33254;SDS011;19623;52.482;9.762;2022-08-18T13:16:12;433.98;;;399.83;;
33254;SDS011;19623;52.482;9.762;2022-08-18T13:18:39;185.20;;;170.90;;
33254;SDS011;19623;52.482;9.762;2022-08-18T13:21:09;109.03;;;100.13;;
33254;SDS011;19623;52.482;9.762;2022-08-18T13:23:36;484.27;;;445.15;;
33254;SDS011;19623;52.482;9.762;2022-08-18T13:26:04;212.85;;;195.43;;
33254;SDS011;19623;52.482;9.762;2022-08-18T13:28:45;153.07;;;140.77;;
33254;SDS011;19623;52.482;9.762;2022-08-18T13:31:10;122.20;;;113.15;;
33254;SDS011;19623;52.482;9.762;2022-08-18T13:33:36;56.28;;;51.45;;
33254;SDS011;19623;52.482;9.762;2022-08-18T13:36:02;618.78;;;566.92;;
33254;SDS011;19623;52.482;9.762;2022-08-18T13:38:28;29.13;;;20.45;;
33254;SDS011;19623;52.482;9.762;2022-08-18T13:40:54;589.78;;;540.28;;
33254;SDS011;19623;52.482;9.762;2022-08-18T13:43:23;426.77;;;389.75;;
33254;SDS011;19623;52.482;9.762;2022-08-18T13:45:54;207.82;;;191.70;;
33254;SDS011;19623;52.482;9.762;2022-08-18T13:48:20;589.10;;;542.45;;
33254;SDS011;19623;52.482;9.762;2022-08-18T13:50:45;446.80;;;409.77;;
33254;SDS011;19623;52.482;9.762;2022-08-18T13:53:12;619.15;;;569.97;;
33254;SDS011;19623;52.482;9.762;2022-08-18T13:55:40;417.05;;;382.08;;
33254;SDS011;19623;52.482;9.762;2022-08-18T13:58:06;314.27;;;289.02;;
33254;SDS011;19623;52.482;9.762;2022-08-18T14:00:32;49.33;;;44.90;;
33254;SDS011;19623;52.482;9.762;2022-08-18T14:02:58;314.77;;;291.08;;
33254;SDS011;19623;52.482;9.762;2022-08-18T14:05:25;386.83;;;354.98;;
33254;SDS011;19623;52.482;9.762;2022-08-18T14:07:52;97.82;;;90.15;;
33254;SDS011;19623;52.482;9.762;2022-08-18T14:10:18;50.00;;;46.20;;
33254;SDS011;19623;52.482;9.762;2022-08-18T14:12:44;80.43;;;74.00;;
33254;SDS011;19623;52.482;9.762;2022-08-18T14:15:11;157.88;;;146.45;;
33254;SDS011;19623;52.482;9.762;2022-08-18T14:17:39;73.40;;;67.85;;
33254;SDS011;19623;52.482;9.762;2022-08-18T14:20:05;28.83;;;25.70;;
33254;SDS011;19623;52.482;9.762;2022-08-18T14:23:07;57.47;;;52.33;;
33254;SDS011;19623;52.482;9.762;2022-08-18T14:25:51;137.45;;;125.63;;
33254;SDS011;19623;52.482;9.762;2022-08-18T14:28:36;91.40;;;83.90;;
33254;SDS011;19623;52.482;9.762;2022-08-18T14:31:01;152.75;;;139.80;;
33254;SDS011;19623;52.482;9.762;2022-08-18T14:33:28;108.05;;;99.78;;
33254;SDS011;19623;52.482;9.762;2022-08-18T14:35:55;117.13;;;108.35;;
33254;SDS011;19623;52.482;9.762;2022-08-18T14:38:21;152.07;;;140.70;;
33254;SDS011;19623;52.482;9.762;2022-08-18T14:40:47;175.20;;;161.88;;
33254;SDS011;19623;52.482;9.762;2022-08-18T14:43:14;174.50;;;161.73;;
33254;SDS011;19623;52.482;9.762;2022-08-18T14:45:42;131.70;;;120.57;;
33254;SDS011;19623;52.482;9.762;2022-08-18T14:48:13;120.20;;;110.03;;
33254;SDS011;19623;52.482;9.762;2022-08-18T14:50:39;152.60;;;140.98;;
33254;SDS011;19623;52.482;9.762;2022-08-18T14:53:06;137.73;;;127.00;;
33254;SDS011;19623;52.482;9.762;2022-08-18T14:55:32;156.48;;;144.25;;
33254;SDS011;19623;52.482;9.762;2022-08-18T14:57:58;143.40;;;132.48;;
33254;SDS011;19623;52.482;9.762;2022-08-18T15:00:25;129.57;;;118.85;;
33254;SDS011;19623;52.482;9.762;2022-08-18T15:02:51;184.25;;;168.75;;
33254;SDS011;19623;52.482;9.762;2022-08-18T15:05:17;117.28;;;107.32;;
33254;SDS011;19623;52.482;9.762;2022-08-18T15:07:43;105.93;;;98.40;;
33254;SDS011;19623;52.482;9.762;2022-08-18T15:10:09;139.50;;;128.55;;
33254;SDS011;19623;52.482;9.762;2022-08-18T15:12:37;111.53;;;103.18;;
33254;SDS011;19623;52.482;9.762;2022-08-18T15:15:04;117.43;;;107.80;;
33254;SDS011;19623;52.482;9.762;2022-08-18T15:17:32;95.72;;;87.57;;
33254;SDS011;19623;52.482;9.762;2022-08-18T15:20:02;180.18;;;166.18;;
33254;SDS011;19623;52.482;9.762;2022-08-18T15:22:28;125.35;;;114.30;;
33254;SDS011;19623;52.482;9.762;2022-08-18T15:25:12;117.57;;;107.60;;
33254;SDS011;19623;52.482;9.762;2022-08-18T15:27:57;82.65;;;75.93;;
33254;SDS011;19623;52.482;9.762;2022-08-18T15:30:23;75.72;;;68.25;;
33254;SDS011;19623;52.482;9.762;2022-08-18T15:32:48;79.40;;;72.30;;
33254;SDS011;19623;52.482;9.762;2022-08-18T15:35:14;166.02;;;151.57;;
33254;SDS011;19623;52.482;9.762;2022-08-18T15:37:42;104.75;;;96.78;;
33254;SDS011;19623;52.482;9.762;2022-08-18T15:42:41;153.65;;;140.75;;
33254;SDS011;19623;52.482;9.762;2022-08-18T15:45:16;100.18;;;92.00;;
33254;SDS011;19623;52.482;9.762;2022-08-18T15:47:42;395.90;;;364.63;;
33254;SDS011;19623;52.482;9.762;2022-08-18T15:50:09;345.45;;;318.75;;
33254;SDS011;19623;52.482;9.762;2022-08-18T15:52:37;221.98;;;205.05;;
33254;SDS011;19623;52.482;9.762;2022-08-18T15:55:14;117.13;;;107.97;;
33254;SDS011;19623;52.482;9.762;2022-08-18T15:57:41;103.38;;;94.28;;
33254;SDS011;19623;52.482;9.762;2022-08-18T16:00:07;177.52;;;162.80;;
33254;SDS011;19623;52.482;9.762;2022-08-18T16:02:34;180.68;;;166.00;;
33254;SDS011;19623;52.482;9.762;2022-08-18T16:05:00;171.77;;;158.38;;
33254;SDS011;19623;52.482;9.762;2022-08-18T16:07:27;207.95;;;191.65;;
33254;SDS011;19623;52.482;9.762;2022-08-18T16:09:53;126.07;;;116.70;;
33254;SDS011;19623;52.482;9.762;2022-08-18T16:12:18;119.97;;;111.10;;
33254;SDS011;19623;52.482;9.762;2022-08-18T16:14:44;139.35;;;128.60;;
33254;SDS011;19623;52.482;9.762;2022-08-18T16:17:10;128.43;;;118.05;;
33254;SDS011;19623;52.482;9.762;2022-08-18T16:19:35;77.15;;;70.22;;
33254;SDS011;19623;52.482;9.762;2022-08-18T16:22:01;88.35;;;81.32;;
33254;SDS011;19623;52.482;9.762;2022-08-18T16:24:30;147.45;;;135.20;;
33254;SDS011;19623;52.482;9.762;2022-08-18T16:26:56;111.45;;;101.43;;
33254;SDS011;19623;52.482;9.762;2022-08-18T16:29:21;287.95;;;267.25;;
33254;SDS011;19623;52.482;9.762;2022-08-18T16:31:47;43.30;;;38.88;;
33254;SDS011;19623;52.482;9.762;2022-08-18T16:34:15;162.50;;;150.60;;
33254;SDS011;19623;52.482;9.762;2022-08-18T16:36:40;81.15;;;74.53;;
33254;SDS011;19623;52.482;9.762;2022-08-18T16:39:06;143.05;;;131.98;;
33254;SDS011;19623;52.482;9.762;2022-08-18T16:41:32;392.27;;;361.80;;
33254;SDS011;19623;52.482;9.762;2022-08-18T16:43:58;199.55;;;184.02;;
33254;SDS011;19623;52.482;9.762;2022-08-18T16:46:24;114.82;;;105.25;;
33254;SDS011;19623;52.482;9.762;2022-08-18T16:48:52;219.38;;;202.77;;
33254;SDS011;19623;52.482;9.762;2022-08-18T16:51:19;316.83;;;293.77;;
33254;SDS011;19623;52.482;9.762;2022-08-18T16:53:48;216.07;;;199.75;;
33254;SDS011;19623;52.482;9.762;2022-08-18T16:56:17;141.02;;;129.73;;
33254;SDS011;19623;52.482;9.762;2022-08-18T16:58:46;197.52;;;182.30;;